sensor_id;sensor_type;location;lat;lon;timestamp;temperature;humidity
27413;DHT22;14871;52.702;5.230;2022-10-22T00:02:20;16.50;99.90
27413;DHT22;14871;52.702;5.230;2022-10-22T00:04:49;16.50;99.90
27413;DHT22;14871;52.702;5.230;2022-10-22T00:07:17;16.40;99.90
27413;DHT22;14871;52.702;5.230;2022-10-22T00:09:42;16.40;99.90
27413;DHT22;14871;52.702;5.230;2022-10-22T00:12:08;16.50;99.90
27413;DHT22;14871;52.702;5.230;2022-10-22T00:14:34;16.50;99.90
27413;DHT22;14871;52.702;5.230;2022-10-22T00:17:00;16.50;99.90
27413;DHT22;14871;52.702;5.230;2022-10-22T00:19:26;16.50;99.90
27413;DHT22;14871;52.702;5.230;2022-10-22T00:21:52;16.50;99.90
27413;DHT22;14871;52.702;5.230;2022-10-22T00:24:18;16.50;99.90
27413;DHT22;14871;52.702;5.230;2022-10-22T00:26:43;16.60;99.90
27413;DHT22;14871;52.702;5.230;2022-10-22T00:29:09;16.50;99.90
27413;DHT22;14871;52.702;5.230;2022-10-22T00:31:34;16.50;99.90
27413;DHT22;14871;52.702;5.230;2022-10-22T00:34:00;16.50;99.90
27413;DHT22;14871;52.702;5.230;2022-10-22T00:36:26;16.40;99.90
27413;DHT22;14871;52.702;5.230;2022-10-22T00:38:52;16.50;99.90
27413;DHT22;14871;52.702;5.230;2022-10-22T00:41:18;16.50;99.90
27413;DHT22;14871;52.702;5.230;2022-10-22T00:43:58;16.40;99.90
27413;DHT22;14871;52.702;5.230;2022-10-22T00:46:24;16.40;99.90
27413;DHT22;14871;52.702;5.230;2022-10-22T00:48:50;16.40;99.90
27413;DHT22;14871;52.702;5.230;2022-10-22T00:51:18;16.20;99.90
27413;DHT22;14871;52.702;5.230;2022-10-22T00:53:46;16.40;99.90
27413;DHT22;14871;52.702;5.230;2022-10-22T00:56:14;16.30;99.90
27413;DHT22;14871;52.702;5.230;2022-10-22T00:58:44;16.30;99.90
27413;DHT22;14871;52.702;5.230;2022-10-22T01:01:14;16.20;99.90
27413;DHT22;14871;52.702;5.230;2022-10-22T01:03:41;16.30;99.90
27413;DHT22;14871;52.702;5.230;2022-10-22T01:06:06;16.30;99.90
27413;DHT22;14871;52.702;5.230;2022-10-22T01:11:21;16.20;99.90
27413;DHT22;14871;52.702;5.230;2022-10-22T01:14:21;16.10;99.90
27413;DHT22;14871;52.702;5.230;2022-10-22T01:17:05;16.10;99.90
27413;DHT22;14871;52.702;5.230;2022-10-22T01:27:57;16.10;99.90
27413;DHT22;14871;52.702;5.230;2022-10-22T01:30:26;16.10;99.90
27413;DHT22;14871;52.702;5.230;2022-10-22T01:32:55;16.20;99.90
27413;DHT22;14871;52.702;5.230;2022-10-22T01:35:38;16.20;99.90
27413;DHT22;14871;52.702;5.230;2022-10-22T01:38:18;16.20;99.90
27413;DHT22;14871;52.702;5.230;2022-10-22T01:40:46;16.20;99.90
27413;DHT22;14871;52.702;5.230;2022-10-22T01:43:12;16.20;99.90
27413;DHT22;14871;52.702;5.230;2022-10-22T01:45:45;16.10;99.90
27413;DHT22;14871;52.702;5.230;2022-10-22T01:53:57;16.10;99.90
27413;DHT22;14871;52.702;5.230;2022-10-22T02:04:43;16.00;99.90
27413;DHT22;14871;52.702;5.230;2022-10-22T02:07:11;16.00;99.90
27413;DHT22;14871;52.702;5.230;2022-10-22T02:09:39;16.00;99.90
27413;DHT22;14871;52.702;5.230;2022-10-22T02:12:06;16.10;99.90
27413;DHT22;14871;52.702;5.230;2022-10-22T02:14:34;16.20;99.90
27413;DHT22;14871;52.702;5.230;2022-10-22T02:17:02;16.20;99.90
27413;DHT22;14871;52.702;5.230;2022-10-22T02:19:52;16.10;99.90
27413;DHT22;14871;52.702;5.230;2022-10-22T02:22:14;16.00;99.90
27413;DHT22;14871;52.702;5.230;2022-10-22T02:24:40;16.10;99.90
27413;DHT22;14871;52.702;5.230;2022-10-22T02:27:28;16.10;99.90
27413;DHT22;14871;52.702;5.230;2022-10-22T02:32:48;16.00;99.90
27413;DHT22;14871;52.702;5.230;2022-10-22T02:35:18;16.00;99.90
27413;DHT22;14871;52.702;5.230;2022-10-22T02:37:45;16.00;99.90
27413;DHT22;14871;52.702;5.230;2022-10-22T02:40:11;16.10;99.90
27413;DHT22;14871;52.702;5.230;2022-10-22T02:42:38;16.10;99.90
27413;DHT22;14871;52.702;5.230;2022-10-22T02:45:05;16.10;99.90
27413;DHT22;14871;52.702;5.230;2022-10-22T02:47:31;16.20;99.90
27413;DHT22;14871;52.702;5.230;2022-10-22T02:49:57;16.10;99.90
27413;DHT22;14871;52.702;5.230;2022-10-22T02:52:22;16.00;99.90
27413;DHT22;14871;52.702;5.230;2022-10-22T02:54:48;15.90;99.90
27413;DHT22;14871;52.702;5.230;2022-10-22T02:57:13;16.10;99.90
27413;DHT22;14871;52.702;5.230;2022-10-22T02:59:39;16.10;99.90
27413;DHT22;14871;52.702;5.230;2022-10-22T03:02:04;16.10;99.90
27413;DHT22;14871;52.702;5.230;2022-10-22T03:04:31;16.20;99.90
27413;DHT22;14871;52.702;5.230;2022-10-22T03:06:56;16.20;99.90
27413;DHT22;14871;52.702;5.230;2022-10-22T03:09:22;16.10;99.90
27413;DHT22;14871;52.702;5.230;2022-10-22T03:11:48;16.20;99.90
27413;DHT22;14871;52.702;5.230;2022-10-22T03:14:13;16.20;99.90
27413;DHT22;14871;52.702;5.230;2022-10-22T03:16:39;16.30;99.90
27413;DHT22;14871;52.702;5.230;2022-10-22T03:19:04;16.10;99.90
27413;DHT22;14871;52.702;5.230;2022-10-22T03:21:43;16.30;99.90
27413;DHT22;14871;52.702;5.230;2022-10-22T03:24:16;16.30;99.90
27413;DHT22;14871;52.702;5.230;2022-10-22T03:26:44;16.20;99.90
27413;DHT22;14871;52.702;5.230;2022-10-22T03:29:12;16.10;99.90
27413;DHT22;14871;52.702;5.230;2022-10-22T03:31:38;16.20;99.90
27413;DHT22;14871;52.702;5.230;2022-10-22T03:34:04;16.30;99.90
27413;DHT22;14871;52.702;5.230;2022-10-22T03:36:31;16.10;99.90
27413;DHT22;14871;52.702;5.230;2022-10-22T03:38:58;16.20;99.90
27413;DHT22;14871;52.702;5.230;2022-10-22T03:41:24;16.10;99.90
27413;DHT22;14871;52.702;5.230;2022-10-22T03:43:50;16.20;99.90
27413;DHT22;14871;52.702;5.230;2022-10-22T03:46:18;16.00;99.90
27413;DHT22;14871;52.702;5.230;2022-10-22T03:48:44;16.00;99.90
27413;DHT22;14871;52.702;5.230;2022-10-22T03:51:10;16.10;99.90
27413;DHT22;14871;52.702;5.230;2022-10-22T03:53:35;16.20;99.90
27413;DHT22;14871;52.702;5.230;2022-10-22T03:56:01;16.10;99.90
27413;DHT22;14871;52.702;5.230;2022-10-22T03:58:27;16.10;99.90
27413;DHT22;14871;52.702;5.230;2022-10-22T04:00:52;16.10;99.90
27413;DHT22;14871;52.702;5.230;2022-10-22T04:03:18;16.10;99.90
27413;DHT22;14871;52.702;5.230;2022-10-22T04:05:44;16.10;99.90
27413;DHT22;14871;52.702;5.230;2022-10-22T04:08:09;16.10;99.90
27413;DHT22;14871;52.702;5.230;2022-10-22T04:10:35;16.10;99.90
27413;DHT22;14871;52.702;5.230;2022-10-22T04:13:00;16.20;99.90
27413;DHT22;14871;52.702;5.230;2022-10-22T04:15:26;16.10;99.90
27413;DHT22;14871;52.702;5.230;2022-10-22T04:17:53;16.20;99.90
27413;DHT22;14871;52.702;5.230;2022-10-22T04:20:19;16.20;99.90
27413;DHT22;14871;52.702;5.230;2022-10-22T04:22:45;16.10;99.90
27413;DHT22;14871;52.702;5.230;2022-10-22T04:25:10;16.20;99.90
27413;DHT22;14871;52.702;5.230;2022-10-22T04:27:36;16.30;99.90
27413;DHT22;14871;52.702;5.230;2022-10-22T04:30:03;16.10;99.90
27413;DHT22;14871;52.702;5.230;2022-10-22T04:32:29;16.20;99.90
27413;DHT22;14871;52.702;5.230;2022-10-22T04:34:55;16.20;99.90
27413;DHT22;14871;52.702;5.230;2022-10-22T04:37:20;16.30;99.90
27413;DHT22;14871;52.702;5.230;2022-10-22T04:39:46;16.20;99.90
27413;DHT22;14871;52.702;5.230;2022-10-22T04:42:11;16.20;99.90
27413;DHT22;14871;52.702;5.230;2022-10-22T04:44:37;16.20;99.90
27413;DHT22;14871;52.702;5.230;2022-10-22T04:47:03;16.20;99.90
27413;DHT22;14871;52.702;5.230;2022-10-22T04:49:28;16.20;99.90
27413;DHT22;14871;52.702;5.230;2022-10-22T04:51:54;16.20;99.90
27413;DHT22;14871;52.702;5.230;2022-10-22T04:54:20;16.20;99.90
27413;DHT22;14871;52.702;5.230;2022-10-22T04:56:46;16.10;99.90
27413;DHT22;14871;52.702;5.230;2022-10-22T04:59:11;16.20;99.90
27413;DHT22;14871;52.702;5.230;2022-10-22T05:01:40;16.10;99.90
27413;DHT22;14871;52.702;5.230;2022-10-22T05:04:08;16.10;99.90
27413;DHT22;14871;52.702;5.230;2022-10-22T05:06:35;16.00;99.90
27413;DHT22;14871;52.702;5.230;2022-10-22T05:09:05;16.20;99.90
27413;DHT22;14871;52.702;5.230;2022-10-22T05:11:36;16.00;99.90
27413;DHT22;14871;52.702;5.230;2022-10-22T05:14:04;16.00;99.90
27413;DHT22;14871;52.702;5.230;2022-10-22T05:16:31;16.10;99.90
27413;DHT22;14871;52.702;5.230;2022-10-22T05:18:58;16.10;99.90
27413;DHT22;14871;52.702;5.230;2022-10-22T05:21:24;16.00;99.90
27413;DHT22;14871;52.702;5.230;2022-10-22T05:23:50;16.10;99.90
27413;DHT22;14871;52.702;5.230;2022-10-22T05:26:18;16.10;99.90
27413;DHT22;14871;52.702;5.230;2022-10-22T05:28:45;16.20;99.90
27413;DHT22;14871;52.702;5.230;2022-10-22T05:31:11;16.20;99.90
27413;DHT22;14871;52.702;5.230;2022-10-22T05:33:38;16.20;99.90
27413;DHT22;14871;52.702;5.230;2022-10-22T05:36:05;16.10;99.90
27413;DHT22;14871;52.702;5.230;2022-10-22T05:38:32;16.10;99.90
27413;DHT22;14871;52.702;5.230;2022-10-22T05:41:20;16.10;99.90
27413;DHT22;14871;52.702;5.230;2022-10-22T05:43:44;16.10;99.90
27413;DHT22;14871;52.702;5.230;2022-10-22T05:46:19;16.10;99.90
27413;DHT22;14871;52.702;5.230;2022-10-22T05:48:57;16.10;99.90
27413;DHT22;14871;52.702;5.230;2022-10-22T05:51:26;16.10;99.90
27413;DHT22;14871;52.702;5.230;2022-10-22T05:53:54;16.10;99.90
27413;DHT22;14871;52.702;5.230;2022-10-22T05:56:20;16.10;99.90
27413;DHT22;14871;52.702;5.230;2022-10-22T05:58:46;16.00;99.90
27413;DHT22;14871;52.702;5.230;2022-10-22T06:01:17;16.00;99.90
27413;DHT22;14871;52.702;5.230;2022-10-22T06:03:43;16.10;99.90
27413;DHT22;14871;52.702;5.230;2022-10-22T06:11:30;16.10;99.90
27413;DHT22;14871;52.702;5.230;2022-10-22T06:13:56;16.20;99.90
27413;DHT22;14871;52.702;5.230;2022-10-22T06:16:22;16.10;99.90
27413;DHT22;14871;52.702;5.230;2022-10-22T06:18:47;16.10;99.90
27413;DHT22;14871;52.702;5.230;2022-10-22T06:21:14;16.10;99.90
27413;DHT22;14871;52.702;5.230;2022-10-22T06:23:40;16.00;99.90
27413;DHT22;14871;52.702;5.230;2022-10-22T06:26:07;16.00;99.90
27413;DHT22;14871;52.702;5.230;2022-10-22T06:28:33;15.90;99.90
27413;DHT22;14871;52.702;5.230;2022-10-22T06:31:01;16.00;99.90
27413;DHT22;14871;52.702;5.230;2022-10-22T06:33:28;15.90;99.90
27413;DHT22;14871;52.702;5.230;2022-10-22T06:35:53;15.90;99.90
27413;DHT22;14871;52.702;5.230;2022-10-22T06:38:19;16.00;99.90
27413;DHT22;14871;52.702;5.230;2022-10-22T06:40:45;16.10;99.90
27413;DHT22;14871;52.702;5.230;2022-10-22T06:43:12;16.00;99.90
27413;DHT22;14871;52.702;5.230;2022-10-22T06:45:37;15.90;99.90
27413;DHT22;14871;52.702;5.230;2022-10-22T06:48:03;15.90;99.90
27413;DHT22;14871;52.702;5.230;2022-10-22T06:50:29;15.90;99.90
27413;DHT22;14871;52.702;5.230;2022-10-22T06:52:55;16.00;99.90
27413;DHT22;14871;52.702;5.230;2022-10-22T06:55:21;16.00;99.90
27413;DHT22;14871;52.702;5.230;2022-10-22T06:57:47;16.10;99.90
27413;DHT22;14871;52.702;5.230;2022-10-22T07:00:13;16.10;99.90
27413;DHT22;14871;52.702;5.230;2022-10-22T07:02:38;16.00;99.90
27413;DHT22;14871;52.702;5.230;2022-10-22T07:05:04;16.00;99.90
27413;DHT22;14871;52.702;5.230;2022-10-22T07:07:30;16.00;99.90
27413;DHT22;14871;52.702;5.230;2022-10-22T07:09:55;16.10;99.90
27413;DHT22;14871;52.702;5.230;2022-10-22T07:12:21;16.20;99.90
27413;DHT22;14871;52.702;5.230;2022-10-22T07:14:48;16.20;99.90
27413;DHT22;14871;52.702;5.230;2022-10-22T07:17:13;16.20;99.90
27413;DHT22;14871;52.702;5.230;2022-10-22T07:19:39;16.20;99.90
27413;DHT22;14871;52.702;5.230;2022-10-22T07:22:05;16.30;99.90
27413;DHT22;14871;52.702;5.230;2022-10-22T07:24:30;16.20;99.90
27413;DHT22;14871;52.702;5.230;2022-10-22T07:26:56;16.30;99.90
27413;DHT22;14871;52.702;5.230;2022-10-22T07:29:22;16.30;99.90
27413;DHT22;14871;52.702;5.230;2022-10-22T07:31:47;16.20;99.90
27413;DHT22;14871;52.702;5.230;2022-10-22T07:34:13;16.40;99.90
27413;DHT22;14871;52.702;5.230;2022-10-22T07:36:38;16.40;99.90
27413;DHT22;14871;52.702;5.230;2022-10-22T07:39:04;16.30;99.90
27413;DHT22;14871;52.702;5.230;2022-10-22T07:41:30;16.30;99.90
27413;DHT22;14871;52.702;5.230;2022-10-22T07:43:56;16.30;99.90
27413;DHT22;14871;52.702;5.230;2022-10-22T07:46:22;16.30;99.90
27413;DHT22;14871;52.702;5.230;2022-10-22T07:48:48;16.40;99.90
27413;DHT22;14871;52.702;5.230;2022-10-22T07:51:14;16.40;99.90
27413;DHT22;14871;52.702;5.230;2022-10-22T07:53:39;16.50;99.90
27413;DHT22;14871;52.702;5.230;2022-10-22T07:56:05;16.60;99.90
27413;DHT22;14871;52.702;5.230;2022-10-22T07:58:31;16.60;99.90
27413;DHT22;14871;52.702;5.230;2022-10-22T08:00:58;16.60;99.90
27413;DHT22;14871;52.702;5.230;2022-10-22T08:03:27;16.50;99.90
27413;DHT22;14871;52.702;5.230;2022-10-22T08:05:53;16.60;99.90
27413;DHT22;14871;52.702;5.230;2022-10-22T08:08:20;16.70;99.90
27413;DHT22;14871;52.702;5.230;2022-10-22T08:10:47;16.70;99.90
27413;DHT22;14871;52.702;5.230;2022-10-22T08:13:13;16.60;99.90
27413;DHT22;14871;52.702;5.230;2022-10-22T08:15:41;16.70;99.90
27413;DHT22;14871;52.702;5.230;2022-10-22T08:18:06;16.70;99.90
27413;DHT22;14871;52.702;5.230;2022-10-22T08:20:32;16.60;99.90
27413;DHT22;14871;52.702;5.230;2022-10-22T08:22:57;16.70;99.90
27413;DHT22;14871;52.702;5.230;2022-10-22T08:25:23;16.70;99.90
27413;DHT22;14871;52.702;5.230;2022-10-22T08:27:49;16.90;99.90
27413;DHT22;14871;52.702;5.230;2022-10-22T08:30:15;16.80;99.90
27413;DHT22;14871;52.702;5.230;2022-10-22T08:32:41;16.80;99.90
27413;DHT22;14871;52.702;5.230;2022-10-22T08:35:07;17.00;99.90
27413;DHT22;14871;52.702;5.230;2022-10-22T08:37:32;16.90;99.90
27413;DHT22;14871;52.702;5.230;2022-10-22T08:39:58;17.00;99.90
27413;DHT22;14871;52.702;5.230;2022-10-22T08:45:23;17.10;99.90
27413;DHT22;14871;52.702;5.230;2022-10-22T08:48:02;17.20;99.90
27413;DHT22;14871;52.702;5.230;2022-10-22T08:50:45;17.00;99.90
27413;DHT22;14871;52.702;5.230;2022-10-22T08:53:27;17.00;99.90
27413;DHT22;14871;52.702;5.230;2022-10-22T08:55:56;17.10;99.90
27413;DHT22;14871;52.702;5.230;2022-10-22T08:58:31;16.90;99.90
27413;DHT22;14871;52.702;5.230;2022-10-22T09:01:26;17.10;99.90
27413;DHT22;14871;52.702;5.230;2022-10-22T09:06:29;17.00;99.90
27413;DHT22;14871;52.702;5.230;2022-10-22T09:08:57;17.00;99.90
27413;DHT22;14871;52.702;5.230;2022-10-22T09:11:34;17.00;99.90
27413;DHT22;14871;52.702;5.230;2022-10-22T09:14:00;17.00;99.90
27413;DHT22;14871;52.702;5.230;2022-10-22T09:16:30;16.80;99.90
27413;DHT22;14871;52.702;5.230;2022-10-22T09:19:14;16.80;99.90
27413;DHT22;14871;52.702;5.230;2022-10-22T09:22:09;16.70;99.90
27413;DHT22;14871;52.702;5.230;2022-10-22T09:24:48;16.90;99.90
27413;DHT22;14871;52.702;5.230;2022-10-22T09:27:17;16.90;99.90
27413;DHT22;14871;52.702;5.230;2022-10-22T09:29:45;17.00;99.90
27413;DHT22;14871;52.702;5.230;2022-10-22T09:32:12;17.10;99.90
27413;DHT22;14871;52.702;5.230;2022-10-22T09:34:38;17.00;99.90
27413;DHT22;14871;52.702;5.230;2022-10-22T09:37:07;17.20;99.90
27413;DHT22;14871;52.702;5.230;2022-10-22T09:39:43;17.30;99.90
27413;DHT22;14871;52.702;5.230;2022-10-22T09:42:13;17.50;99.90
27413;DHT22;14871;52.702;5.230;2022-10-22T09:44:39;17.40;99.90
27413;DHT22;14871;52.702;5.230;2022-10-22T09:47:34;17.50;99.90
27413;DHT22;14871;52.702;5.230;2022-10-22T09:50:27;17.80;99.90
27413;DHT22;14871;52.702;5.230;2022-10-22T09:55:31;18.00;99.90
27413;DHT22;14871;52.702;5.230;2022-10-22T09:57:58;17.90;99.90
27413;DHT22;14871;52.702;5.230;2022-10-22T10:00:25;18.00;99.90
27413;DHT22;14871;52.702;5.230;2022-10-22T10:02:56;18.20;99.90
27413;DHT22;14871;52.702;5.230;2022-10-22T10:05:33;18.80;99.90
27413;DHT22;14871;52.702;5.230;2022-10-22T10:08:12;18.90;99.90
27413;DHT22;14871;52.702;5.230;2022-10-22T10:10:44;19.10;99.90
27413;DHT22;14871;52.702;5.230;2022-10-22T10:15:55;18.60;99.90
27413;DHT22;14871;52.702;5.230;2022-10-22T10:22:00;18.30;99.90
27413;DHT22;14871;52.702;5.230;2022-10-22T10:27:04;18.00;99.90
27413;DHT22;14871;52.702;5.230;2022-10-22T10:29:38;18.00;99.90
27413;DHT22;14871;52.702;5.230;2022-10-22T10:35:34;17.90;99.90
27413;DHT22;14871;52.702;5.230;2022-10-22T10:40:50;17.60;99.90
27413;DHT22;14871;52.702;5.230;2022-10-22T10:48:49;17.50;99.90
27413;DHT22;14871;52.702;5.230;2022-10-22T10:56:50;17.90;99.90
27413;DHT22;14871;52.702;5.230;2022-10-22T10:59:35;18.40;99.90
27413;DHT22;14871;52.702;5.230;2022-10-22T11:05:19;19.50;99.90
27413;DHT22;14871;52.702;5.230;2022-10-22T11:08:03;19.50;99.90
27413;DHT22;14871;52.702;5.230;2022-10-22T11:10:53;19.50;99.90
27413;DHT22;14871;52.702;5.230;2022-10-22T11:18:40;19.80;99.90
27413;DHT22;14871;52.702;5.230;2022-10-22T11:24:02;20.60;99.90
27413;DHT22;14871;52.702;5.230;2022-10-22T11:26:46;21.10;99.90
27413;DHT22;14871;52.702;5.230;2022-10-22T11:29:18;21.60;99.90
27413;DHT22;14871;52.702;5.230;2022-10-22T11:31:47;22.30;99.90
27413;DHT22;14871;52.702;5.230;2022-10-22T11:34:35;22.90;99.90
27413;DHT22;14871;52.702;5.230;2022-10-22T11:37:04;22.90;99.90
27413;DHT22;14871;52.702;5.230;2022-10-22T11:42:06;23.40;99.90
27413;DHT22;14871;52.702;5.230;2022-10-22T11:44:45;22.80;99.90
27413;DHT22;14871;52.702;5.230;2022-10-22T11:47:19;22.30;99.90
27413;DHT22;14871;52.702;5.230;2022-10-22T11:50:43;21.80;99.90
27413;DHT22;14871;52.702;5.230;2022-10-22T11:55:43;20.90;99.90
27413;DHT22;14871;52.702;5.230;2022-10-22T12:00:56;19.90;99.90
27413;DHT22;14871;52.702;5.230;2022-10-22T12:15:19;19.30;99.90
27413;DHT22;14871;52.702;5.230;2022-10-22T12:17:16;19.60;99.90
27413;DHT22;14871;52.702;5.230;2022-10-22T12:19:44;20.20;99.90
27413;DHT22;14871;52.702;5.230;2022-10-22T12:22:18;20.70;99.90
27413;DHT22;14871;52.702;5.230;2022-10-22T12:24:47;21.20;99.90
27413;DHT22;14871;52.702;5.230;2022-10-22T12:27:22;21.60;99.90
27413;DHT22;14871;52.702;5.230;2022-10-22T12:29:53;21.80;99.90
27413;DHT22;14871;52.702;5.230;2022-10-22T12:32:20;22.20;99.90
27413;DHT22;14871;52.702;5.230;2022-10-22T12:34:50;22.30;99.90
27413;DHT22;14871;52.702;5.230;2022-10-22T12:37:17;22.50;99.90
27413;DHT22;14871;52.702;5.230;2022-10-22T12:39:44;22.70;99.90
27413;DHT22;14871;52.702;5.230;2022-10-22T12:42:15;22.70;99.90
27413;DHT22;14871;52.702;5.230;2022-10-22T12:44:44;23.10;99.90
27413;DHT22;14871;52.702;5.230;2022-10-22T12:47:14;22.90;99.90
27413;DHT22;14871;52.702;5.230;2022-10-22T12:49:43;22.70;99.90
27413;DHT22;14871;52.702;5.230;2022-10-22T12:52:17;22.40;99.90
27413;DHT22;14871;52.702;5.230;2022-10-22T12:54:45;22.40;99.90
27413;DHT22;14871;52.702;5.230;2022-10-22T12:57:14;22.20;99.90
27413;DHT22;14871;52.702;5.230;2022-10-22T12:59:43;22.30;99.90
27413;DHT22;14871;52.702;5.230;2022-10-22T13:02:25;22.20;99.90
27413;DHT22;14871;52.702;5.230;2022-10-22T13:05:21;22.10;99.90
27413;DHT22;14871;52.702;5.230;2022-10-22T13:07:50;22.00;99.30
27413;DHT22;14871;52.702;5.230;2022-10-22T13:10:25;22.00;99.80
27413;DHT22;14871;52.702;5.230;2022-10-22T13:12:54;22.10;98.70
27413;DHT22;14871;52.702;5.230;2022-10-22T13:18:02;22.20;98.30
27413;DHT22;14871;52.702;5.230;2022-10-22T13:20:29;22.70;97.70
27413;DHT22;14871;52.702;5.230;2022-10-22T13:23:03;23.00;97.30
27413;DHT22;14871;52.702;5.230;2022-10-22T13:25:36;23.60;95.80
27413;DHT22;14871;52.702;5.230;2022-10-22T13:30:34;23.60;95.00
27413;DHT22;14871;52.702;5.230;2022-10-22T13:35:45;23.90;95.00
27413;DHT22;14871;52.702;5.230;2022-10-22T13:38:23;23.90;94.00
27413;DHT22;14871;52.702;5.230;2022-10-22T13:40:49;23.70;93.80
27413;DHT22;14871;52.702;5.230;2022-10-22T13:43:15;23.30;94.20
27413;DHT22;14871;52.702;5.230;2022-10-22T13:45:42;23.00;95.40
27413;DHT22;14871;52.702;5.230;2022-10-22T13:48:13;22.70;95.30
27413;DHT22;14871;52.702;5.230;2022-10-22T13:50:39;22.40;96.30
27413;DHT22;14871;52.702;5.230;2022-10-22T13:53:05;22.10;96.70
27413;DHT22;14871;52.702;5.230;2022-10-22T13:55:35;22.00;96.60
27413;DHT22;14871;52.702;5.230;2022-10-22T13:58:21;22.10;96.40
27413;DHT22;14871;52.702;5.230;2022-10-22T14:00:55;22.10;96.60
27413;DHT22;14871;52.702;5.230;2022-10-22T14:03:25;22.40;96.30
27413;DHT22;14871;52.702;5.230;2022-10-22T14:05:52;22.50;95.70
27413;DHT22;14871;52.702;5.230;2022-10-22T14:08:19;22.70;95.30
27413;DHT22;14871;52.702;5.230;2022-10-22T14:10:45;22.80;95.20
27413;DHT22;14871;52.702;5.230;2022-10-22T14:13:12;22.80;95.70
27413;DHT22;14871;52.702;5.230;2022-10-22T14:15:38;23.20;95.00
27413;DHT22;14871;52.702;5.230;2022-10-22T14:18:06;23.20;94.30
27413;DHT22;14871;52.702;5.230;2022-10-22T14:20:35;22.90;94.20
27413;DHT22;14871;52.702;5.230;2022-10-22T14:23:14;22.20;95.50
27413;DHT22;14871;52.702;5.230;2022-10-22T14:25:41;21.90;96.30
27413;DHT22;14871;52.702;5.230;2022-10-22T14:28:10;22.00;96.50
27413;DHT22;14871;52.702;5.230;2022-10-22T14:30:36;22.20;96.70
27413;DHT22;14871;52.702;5.230;2022-10-22T14:33:15;22.60;95.30
27413;DHT22;14871;52.702;5.230;2022-10-22T14:35:41;22.90;94.50
27413;DHT22;14871;52.702;5.230;2022-10-22T14:38:07;22.90;94.20
27413;DHT22;14871;52.702;5.230;2022-10-22T14:40:33;23.10;93.80
27413;DHT22;14871;52.702;5.230;2022-10-22T14:42:58;23.10;94.10
27413;DHT22;14871;52.702;5.230;2022-10-22T14:45:25;23.10;93.80
27413;DHT22;14871;52.702;5.230;2022-10-22T14:47:52;22.70;94.60
27413;DHT22;14871;52.702;5.230;2022-10-22T14:50:21;22.70;94.40
27413;DHT22;14871;52.702;5.230;2022-10-22T14:52:47;22.50;94.50
27413;DHT22;14871;52.702;5.230;2022-10-22T14:55:14;22.10;95.00
27413;DHT22;14871;52.702;5.230;2022-10-22T14:57:40;21.90;95.70
27413;DHT22;14871;52.702;5.230;2022-10-22T15:00:09;21.90;95.80
27413;DHT22;14871;52.702;5.230;2022-10-22T15:02:35;21.70;96.30
27413;DHT22;14871;52.702;5.230;2022-10-22T15:05:01;21.50;96.30
27413;DHT22;14871;52.702;5.230;2022-10-22T15:07:27;21.20;97.20
27413;DHT22;14871;52.702;5.230;2022-10-22T15:09:53;21.00;97.60
27413;DHT22;14871;52.702;5.230;2022-10-22T15:12:19;20.90;98.10
27413;DHT22;14871;52.702;5.230;2022-10-22T15:14:48;20.90;98.10
27413;DHT22;14871;52.702;5.230;2022-10-22T15:17:15;20.80;98.30
27413;DHT22;14871;52.702;5.230;2022-10-22T15:19:41;20.50;99.00
27413;DHT22;14871;52.702;5.230;2022-10-22T15:22:08;20.50;99.10
27413;DHT22;14871;52.702;5.230;2022-10-22T15:24:34;20.30;99.90
27413;DHT22;14871;52.702;5.230;2022-10-22T15:26:59;20.40;99.70
27413;DHT22;14871;52.702;5.230;2022-10-22T15:29:25;20.40;99.70
27413;DHT22;14871;52.702;5.230;2022-10-22T15:31:53;20.30;99.90
27413;DHT22;14871;52.702;5.230;2022-10-22T15:34:30;20.20;99.90
27413;DHT22;14871;52.702;5.230;2022-10-22T15:36:58;20.40;99.90
27413;DHT22;14871;52.702;5.230;2022-10-22T15:39:25;20.20;99.90
27413;DHT22;14871;52.702;5.230;2022-10-22T15:41:51;20.10;99.90
27413;DHT22;14871;52.702;5.230;2022-10-22T15:44:20;20.00;99.90
27413;DHT22;14871;52.702;5.230;2022-10-22T15:46:46;19.90;99.90
27413;DHT22;14871;52.702;5.230;2022-10-22T15:49:12;19.90;99.90
27413;DHT22;14871;52.702;5.230;2022-10-22T15:51:38;19.80;99.90
27413;DHT22;14871;52.702;5.230;2022-10-22T15:54:04;19.80;99.90
27413;DHT22;14871;52.702;5.230;2022-10-22T15:56:30;19.70;99.90
27413;DHT22;14871;52.702;5.230;2022-10-22T15:59:00;19.80;99.90
27413;DHT22;14871;52.702;5.230;2022-10-22T16:01:29;19.70;99.90
27413;DHT22;14871;52.702;5.230;2022-10-22T16:03:54;19.70;99.90
27413;DHT22;14871;52.702;5.230;2022-10-22T16:06:53;19.70;99.90
27413;DHT22;14871;52.702;5.230;2022-10-22T16:09:22;19.60;99.90
27413;DHT22;14871;52.702;5.230;2022-10-22T16:11:48;19.40;99.90
27413;DHT22;14871;52.702;5.230;2022-10-22T16:14:16;19.30;99.90
27413;DHT22;14871;52.702;5.230;2022-10-22T16:16:45;19.30;99.90
27413;DHT22;14871;52.702;5.230;2022-10-22T16:19:13;19.20;99.90
27413;DHT22;14871;52.702;5.230;2022-10-22T16:21:39;19.00;99.90
27413;DHT22;14871;52.702;5.230;2022-10-22T16:24:06;19.00;99.90
27413;DHT22;14871;52.702;5.230;2022-10-22T16:26:32;18.90;99.90
27413;DHT22;14871;52.702;5.230;2022-10-22T16:28:57;18.90;99.90
27413;DHT22;14871;52.702;5.230;2022-10-22T16:31:23;18.80;99.90
27413;DHT22;14871;52.702;5.230;2022-10-22T16:33:49;18.80;99.90
27413;DHT22;14871;52.702;5.230;2022-10-22T16:36:17;18.80;99.90
27413;DHT22;14871;52.702;5.230;2022-10-22T16:38:44;18.60;99.90
27413;DHT22;14871;52.702;5.230;2022-10-22T16:41:12;18.60;99.90
27413;DHT22;14871;52.702;5.230;2022-10-22T16:43:39;18.70;99.90
27413;DHT22;14871;52.702;5.230;2022-10-22T16:46:05;18.60;99.90
27413;DHT22;14871;52.702;5.230;2022-10-22T16:48:32;18.60;99.90
27413;DHT22;14871;52.702;5.230;2022-10-22T16:50:58;18.60;99.90
27413;DHT22;14871;52.702;5.230;2022-10-22T16:53:24;18.60;99.90
27413;DHT22;14871;52.702;5.230;2022-10-22T16:55:50;18.60;99.90
27413;DHT22;14871;52.702;5.230;2022-10-22T16:58:15;18.60;99.90
27413;DHT22;14871;52.702;5.230;2022-10-22T17:00:41;18.70;99.90
27413;DHT22;14871;52.702;5.230;2022-10-22T17:03:09;18.60;99.90
27413;DHT22;14871;52.702;5.230;2022-10-22T17:05:35;18.60;99.90
27413;DHT22;14871;52.702;5.230;2022-10-22T17:08:01;18.60;99.90
27413;DHT22;14871;52.702;5.230;2022-10-22T17:10:26;18.60;99.90
27413;DHT22;14871;52.702;5.230;2022-10-22T17:12:52;18.60;99.90
27413;DHT22;14871;52.702;5.230;2022-10-22T17:15:18;18.50;99.90
27413;DHT22;14871;52.702;5.230;2022-10-22T17:17:43;18.50;99.90
27413;DHT22;14871;52.702;5.230;2022-10-22T17:20:13;18.60;99.90
27413;DHT22;14871;52.702;5.230;2022-10-22T17:22:38;18.40;99.90
27413;DHT22;14871;52.702;5.230;2022-10-22T17:25:18;18.30;99.90
27413;DHT22;14871;52.702;5.230;2022-10-22T17:27:46;18.40;99.90